Главная страница
METAR-TAF:

METAR-TAF

Аэропорты :

Дакар, Сенегал

широта: 14-44N, долгота: 017-30W, высота над уровнем моря: 27 м

Текущие метеонаблюдения

Эта сводка был подготовлена 1 час и 11 минут назад, в 01:00 UTC
Ветер 4 Узел от северо-западный
Температура 27°C
Влажность 84%
Давление 1014 hPa
Видимость: 8000 м
небольшая облачность на высоте 1300 фута

METAR: GOOY 160100Z 32004KT 8000 FEW013 27/24 Q1014

Время: 02:11 (02:11 UTC)

Прогноз

Эта сводка был подготовлена 2 часа и 41 минут назад, в 23:30 UTC
Прогноз действительный с 16-го 00 UTC до 17-го 06 UTC
Ветер 8 Узел от северный
Видимость 10 км и более
Отдельные облака на высоте 1200 фута

TAF: GOOY 152330Z 1600/1706 36008KT 9999 SCT012

Метеонаблюдения и прогнозы для более 4000 аэропортов (сводки METAR и TAF).

Имеющиеся станции представлены на карте желтыми и красными точками.

Чтобы увидеть название станции, наведите на нее мышь.

Затем щелкните, чтобы увидеть метеонаблюдения и метеопрогнозы.

Управление картой: чтобы увеличить масштаб, щелкните зеленые кнопки с черным крестиком; чтобы уменьшить масштаб, щелкните зеленую кнопку с тире; для просмотра соседних карт щелкайте зеленые стрелки.


METAR-TAF: